createdAt,value
2019-04-23T00:01:23.581Z,65.60
2019-04-23T00:03:45.910Z,65.60
2019-04-23T00:06:23.368Z,66.00
2019-04-23T00:11:25.544Z,66.50
2019-04-23T00:13:59.428Z,66.70
2019-04-23T00:18:59.424Z,67.30
2019-04-23T00:24:21.315Z,67.80
2019-04-23T00:26:45.542Z,67.80
2019-04-23T00:29:13.542Z,68.10
2019-04-23T00:31:44.536Z,68.40
2019-04-23T00:34:15.999Z,68.40
2019-04-23T00:36:47.674Z,68.60
2019-04-23T00:39:18.785Z,68.80
2019-04-23T00:42:07.108Z,68.90
2019-04-23T00:44:25.006Z,69.10
2019-04-23T00:46:48.673Z,69.50
2019-04-23T00:52:02.024Z,69.50
2019-04-23T00:54:26.204Z,70.00
2019-04-23T00:57:00.688Z,70.10
2019-04-23T00:59:33.150Z,70.20
2019-04-23T01:02:01.050Z,71.40
2019-04-23T01:04:31.631Z,70.30
2019-04-23T01:07:04.482Z,70.60
2019-04-23T01:09:38.930Z,70.90
2019-04-23T01:12:06.167Z,71.00
2019-04-23T01:14:38.522Z,71.10
2019-04-23T01:17:18.580Z,71.10
2019-04-23T01:19:44.012Z,71.40
2019-04-23T01:21:55.789Z,71.50
2019-04-23T01:24:45.437Z,71.50
2019-04-23T01:27:49.139Z,71.60
2019-04-23T01:32:43.695Z,71.90
2019-04-23T01:35:17.486Z,71.70
2019-04-23T01:38:00.812Z,71.90
2019-04-23T01:40:19.126Z,72.00
2019-04-23T01:50:31.258Z,72.10
2019-04-23T01:52:59.343Z,72.30
2019-04-23T01:55:28.016Z,72.40
2019-04-23T02:00:34.009Z,72.80
2019-04-23T02:08:08.395Z,73.10
2019-04-23T02:13:17.863Z,73.40
2019-04-23T02:18:17.878Z,73.40
2019-04-23T02:23:29.218Z,74.50
2019-04-23T02:25:54.028Z,73.80
2019-04-23T02:28:25.387Z,73.80
2019-04-23T02:33:43.930Z,74.00
2019-04-23T02:36:08.069Z,74.30
2019-04-23T02:38:45.765Z,74.40
2019-04-23T02:41:12.853Z,74.60
2019-04-23T02:43:39.158Z,74.80
2019-04-23T02:46:09.235Z,75.00
2019-04-23T02:51:22.482Z,75.50
2019-04-23T02:56:30.700Z,76.00
2019-04-23T02:59:02.437Z,76.30
2019-04-23T03:01:29.855Z,76.50
2019-04-23T03:03:59.744Z,76.30
2019-04-23T03:06:30.037Z,76.60
2019-04-23T03:08:49.198Z,77.00
2019-04-23T03:11:32.181Z,77.20
2019-04-23T03:14:03.750Z,77.40
2019-04-23T03:22:42.140Z,78.10
2019-04-23T03:25:10.651Z,78.00
2019-04-23T03:27:34.097Z,78.30
2019-04-23T03:30:13.394Z,78.30
2019-04-23T03:37:42.343Z,79.20
2019-04-23T03:40:07.929Z,79.80
2019-04-23T03:42:42.315Z,80.00
2019-04-23T03:45:32.482Z,80.20
2019-04-23T03:47:48.154Z,80.20
2019-04-23T03:50:25.864Z,80.60
2019-04-23T03:55:30.185Z,81.30
2019-04-23T03:57:43.272Z,81.80
2019-04-23T04:12:57.657Z,84.30
2019-04-23T04:20:46.976Z,84.30
2019-04-23T04:25:39.271Z,83.70
2019-04-23T04:28:17.731Z,84.00
2019-04-23T04:30:43.768Z,83.60
2019-04-23T04:36:01.023Z,84.60
2019-04-23T04:46:12.745Z,85.60
2019-04-23T04:48:33.001Z,86.50
2019-04-23T04:51:08.038Z,85.20
2019-04-23T04:53:52.126Z,86.10
2019-04-23T04:58:47.435Z,86.70
2019-04-23T05:03:29.569Z,87.00
2019-04-23T05:11:17.483Z,87.40
2019-04-23T05:13:58.404Z,87.10
2019-04-23T05:16:22.797Z,86.40
2019-04-23T05:19:04.141Z,85.60
2019-04-23T05:21:37.042Z,85.50
2019-04-23T05:24:06.680Z,84.90
2019-04-23T05:29:11.204Z,85.20
2019-04-23T05:31:30.977Z,85.00
2019-04-23T05:34:06.063Z,84.70
2019-04-23T05:39:19.285Z,83.90
2019-04-23T05:44:15.510Z,84.30
2019-04-23T05:46:36.670Z,84.50
2019-04-23T05:49:14.219Z,84.00
2019-04-23T05:51:54.255Z,84.20
2019-04-23T05:54:22.594Z,83.50
2019-04-23T05:56:46.796Z,83.10
2019-04-23T05:59:19.550Z,83.20
2019-04-23T06:04:27.125Z,83.50
2019-04-23T06:07:11.315Z,82.80
2019-04-23T06:09:25.216Z,82.80
2019-04-23T06:14:37.245Z,83.10
2019-04-23T06:17:09.240Z,82.60
2019-04-23T06:19:28.769Z,82.80
2019-04-23T06:22:18.494Z,83.00
2019-04-23T06:24:39.853Z,83.20
2019-04-23T06:27:10.287Z,82.70
2019-04-23T06:32:09.432Z,82.70
2019-04-23T06:34:43.493Z,82.90
2019-04-23T06:37:39.797Z,82.30
2019-04-23T06:42:11.542Z,81.60
2019-04-23T06:44:51.776Z,81.40
2019-04-23T06:47:20.105Z,81.40
2019-04-23T06:49:55.674Z,81.10
2019-04-23T06:57:39.756Z,81.30
2019-04-23T07:00:15.491Z,81.30
2019-04-23T07:02:34.370Z,81.70
2019-04-23T07:10:07.428Z,80.70
2019-04-23T07:12:41.131Z,81.80
2019-04-23T07:15:24.656Z,79.10
2019-04-23T07:17:35.012Z,79.20
2019-04-23T07:20:12.810Z,79.30
2019-04-23T07:22:42.818Z,79.90
2019-04-23T07:25:17.500Z,79.20
2019-04-23T07:28:07.924Z,78.80
2019-04-23T07:30:20.899Z,80.20
2019-04-23T07:32:52.897Z,80.50
2019-04-23T07:35:15.840Z,79.40
2019-04-23T07:38:02.968Z,80.40
2019-04-23T07:40:39.027Z,80.10
2019-04-23T07:43:23.314Z,80.20
2019-04-23T07:46:08.800Z,79.30
2019-04-23T07:48:43.892Z,80.30
2019-04-23T07:51:16.238Z,80.20
2019-04-23T07:53:31.557Z,80.60
2019-04-23T07:58:44.759Z,80.50
2019-04-23T08:01:06.849Z,80.20
2019-04-23T08:06:05.851Z,80.50
2019-04-23T08:08:43.312Z,80.70
2019-04-23T08:13:55.664Z,81.80
2019-04-23T08:16:28.176Z,81.60
2019-04-23T08:21:40.179Z,81.00
2019-04-23T08:29:10.147Z,81.10
2019-04-23T08:31:43.688Z,81.00
2019-04-23T08:34:25.528Z,81.80
2019-04-23T08:36:49.975Z,80.50
2019-04-23T08:39:21.575Z,81.30
2019-04-23T08:41:56.269Z,80.40
2019-04-23T08:44:21.634Z,81.40
2019-04-23T08:47:00.077Z,81.10
2019-04-23T08:49:29.583Z,80.00
2019-04-23T08:52:00.605Z,81.10
2019-04-23T08:54:37.002Z,80.50
2019-04-23T08:57:04.072Z,80.10
2019-04-23T09:02:18.408Z,81.00
2019-04-23T09:07:13.367Z,79.40
2019-04-23T09:12:08.186Z,82.00
2019-04-23T09:14:39.451Z,81.00
2019-04-23T09:17:13.119Z,81.30
2019-04-23T09:19:54.465Z,81.10
2019-04-23T09:24:48.516Z,81.40
2019-04-23T09:27:23.311Z,82.30
2019-04-23T09:29:58.011Z,81.90
2019-04-23T09:37:48.822Z,83.70
2019-04-23T09:40:31.813Z,82.80
2019-04-23T09:48:09.111Z,83.50
2019-04-23T09:53:27.745Z,84.20
2019-04-23T09:55:47.625Z,83.60
2019-04-23T09:58:34.657Z,84.70
2019-04-23T10:01:23.442Z,83.80
2019-04-23T10:03:43.170Z,84.60
2019-04-23T10:06:03.942Z,84.80
2019-04-23T10:08:36.469Z,84.30
2019-04-23T10:11:02.889Z,83.60
2019-04-23T10:13:34.321Z,84.30
2019-04-23T10:16:06.421Z,84.70
2019-04-23T10:18:37.349Z,84.30
2019-04-23T10:21:07.818Z,83.00
2019-04-23T10:23:39.017Z,84.10
2019-04-23T10:26:10.075Z,84.00
2019-04-23T10:28:51.857Z,83.90
2019-04-23T10:31:22.884Z,84.60
2019-04-23T10:33:52.799Z,83.70
2019-04-23T10:36:25.914Z,83.80
2019-04-23T10:39:00.583Z,85.30
2019-04-23T10:41:25.896Z,84.30
2019-04-23T10:43:58.687Z,83.40
2019-04-23T10:47:17.240Z,84.80
2019-04-23T10:49:53.397Z,83.70
2019-04-23T10:54:57.372Z,83.10
2019-04-23T10:57:19.818Z,83.80
2019-04-23T11:00:08.504Z,82.70
2019-04-23T11:05:15.807Z,82.30
2019-04-23T11:07:36.836Z,82.30
2019-04-23T11:10:11.241Z,83.30
2019-04-23T11:15:28.184Z,83.30
2019-04-23T11:25:31.869Z,82.00
2019-04-23T11:28:03.046Z,81.80
2019-04-23T11:30:31.878Z,81.60
2019-04-23T11:35:39.975Z,81.10
2019-04-23T11:38:32.546Z,81.30
2019-04-23T11:40:34.186Z,80.80
2019-04-23T11:43:14.783Z,80.70
2019-04-23T11:45:48.514Z,81.20
2019-04-23T11:48:34.334Z,80.60
2019-04-23T11:51:18.771Z,80.60
2019-04-23T11:53:19.978Z,81.10
2019-04-23T11:58:21.873Z,79.50
2019-04-23T12:01:11.433Z,79.90
2019-04-23T12:03:47.093Z,79.70
2019-04-23T12:06:30.093Z,79.70
2019-04-23T12:09:09.705Z,79.80
2019-04-23T12:14:37.167Z,78.50
2019-04-23T12:17:08.242Z,79.50
2019-04-23T12:19:54.902Z,79.10
2019-04-23T12:22:01.174Z,79.20
2019-04-23T12:27:06.135Z,78.10
2019-04-23T12:35:04.256Z,78.00
2019-04-23T12:37:42.712Z,78.80
2019-04-23T12:48:05.278Z,78.50
2019-04-23T12:50:42.308Z,78.70
2019-04-23T12:52:54.211Z,79.60
2019-04-23T12:55:27.829Z,78.20
2019-04-23T12:58:03.268Z,78.50
2019-04-23T13:00:35.846Z,79.00
2019-04-23T13:02:55.495Z,77.90
2019-04-23T13:07:58.658Z,78.80
2019-04-23T13:10:42.300Z,79.80
2019-04-23T13:18:14.818Z,79.40
2019-04-23T13:23:19.223Z,79.40
2019-04-23T13:25:57.099Z,78.90
2019-04-23T13:28:40.123Z,78.20
2019-04-23T13:33:49.961Z,79.10
2019-04-23T13:36:17.739Z,79.70
2019-04-23T13:38:56.731Z,79.30
2019-04-23T13:43:48.353Z,80.00
2019-04-23T13:46:14.900Z,79.00
2019-04-23T13:48:49.345Z,80.60
2019-04-23T13:51:27.341Z,79.50
2019-04-23T13:53:53.401Z,78.60
2019-04-23T13:57:13.046Z,78.40
2019-04-23T13:59:03.348Z,78.30
2019-04-23T14:01:33.583Z,77.90
2019-04-23T14:04:16.173Z,78.50
2019-04-23T14:09:19.974Z,77.70
2019-04-23T14:12:01.503Z,76.60
2019-04-23T14:14:36.220Z,77.40
2019-04-23T14:17:00.194Z,77.00
2019-04-23T14:19:16.819Z,77.40
2019-04-23T14:22:18.051Z,76.90
2019-04-23T14:24:38.879Z,76.50
2019-04-23T14:26:58.267Z,76.80
2019-04-23T14:29:41.443Z,77.60
2019-04-23T14:32:10.257Z,76.70
2019-04-23T14:34:35.287Z,76.40
2019-04-23T14:39:43.592Z,76.10
2019-04-23T14:42:22.538Z,77.40
2019-04-23T14:44:56.092Z,76.80
2019-04-23T14:47:24.292Z,77.00
2019-04-23T14:50:17.070Z,78.60
2019-04-23T14:55:37.957Z,77.10
2019-04-23T14:57:34.080Z,77.50
2019-04-23T15:00:01.679Z,77.60
2019-04-23T15:02:40.631Z,75.60
2019-04-23T15:05:04.130Z,75.20
2019-04-23T15:07:38.073Z,75.70
2019-04-23T15:10:12.999Z,76.20
2019-04-23T15:12:42.538Z,74.10
2019-04-23T15:17:45.084Z,73.60
2019-04-23T15:20:15.016Z,74.30
2019-04-23T15:23:09.208Z,74.50
2019-04-23T15:30:17.528Z,74.90
2019-04-23T15:33:03.958Z,74.40
2019-04-23T15:35:29.441Z,73.20
2019-04-23T15:40:25.162Z,72.70
2019-04-23T15:43:04.776Z,73.00
2019-04-23T15:45:42.367Z,72.60
2019-04-23T15:48:11.890Z,72.50
2019-04-23T15:50:38.540Z,72.50
2019-04-23T15:53:19.589Z,72.50
2019-04-23T15:55:43.727Z,72.80
2019-04-23T15:58:15.701Z,72.70
2019-04-23T16:00:48.109Z,72.00
2019-04-23T16:02:53.693Z,72.30
2019-04-23T16:05:23.623Z,72.70
2019-04-23T16:08:13.105Z,73.10
2019-04-23T16:11:06.126Z,72.90
2019-04-23T16:13:30.971Z,72.80
2019-04-23T16:15:58.024Z,73.20
2019-04-23T16:18:37.396Z,72.90
2019-04-23T16:21:10.581Z,72.90
2019-04-23T16:23:41.255Z,73.20
2019-04-23T16:26:14.640Z,72.90
2019-04-23T16:29:01.404Z,73.90
2019-04-23T16:31:24.120Z,73.90
2019-04-23T16:33:57.391Z,73.90
2019-04-23T16:36:25.214Z,73.90
2019-04-23T16:39:10.244Z,74.50
2019-04-23T16:41:51.674Z,74.90
2019-04-23T16:44:07.957Z,74.70
2019-04-23T16:46:33.891Z,74.40
2019-04-23T16:54:09.944Z,75.20
2019-04-23T16:57:07.611Z,75.80
2019-04-23T16:59:13.515Z,75.90
2019-04-23T17:01:44.573Z,76.00
2019-04-23T17:04:18.258Z,76.00
2019-04-23T17:06:48.975Z,76.40
2019-04-23T17:09:21.543Z,76.40
2019-04-23T17:11:55.612Z,76.80
2019-04-23T17:14:21.116Z,77.40
2019-04-23T17:16:44.318Z,77.80
2019-04-23T17:19:24.261Z,78.00
2019-04-23T17:22:01.110Z,77.90
2019-04-23T17:24:23.214Z,77.60
2019-04-23T17:27:03.763Z,77.90
2019-04-23T17:29:28.305Z,78.10
2019-04-23T17:32:00.558Z,78.30
2019-04-23T17:34:35.261Z,78.70
2019-04-23T17:37:17.306Z,79.10
2019-04-23T17:39:52.990Z,79.30
2019-04-23T17:45:16.294Z,80.40
2019-04-23T17:47:43.828Z,80.80
2019-04-23T17:50:13.392Z,81.20
2019-04-23T17:52:41.780Z,81.60
2019-04-23T17:55:15.410Z,82.00
2019-04-23T17:57:43.657Z,82.00
2019-04-23T18:05:16.691Z,83.00
2019-04-23T18:13:08.504Z,83.20
2019-04-23T18:15:41.890Z,83.10
2019-04-23T18:17:57.181Z,83.00
2019-04-23T18:20:38.527Z,83.40
2019-04-23T18:23:09.486Z,83.80
2019-04-23T18:26:00.203Z,84.20
2019-04-23T18:28:31.741Z,85.20
2019-04-23T18:31:11.372Z,85.30
2019-04-23T18:36:08.144Z,86.00
2019-04-23T18:38:50.049Z,86.60
2019-04-23T18:41:33.721Z,86.80
2019-04-23T18:43:51.086Z,87.30
2019-04-23T18:46:26.785Z,89.00
2019-04-23T18:48:51.811Z,87.80
2019-04-23T18:51:31.754Z,88.20
2019-04-23T18:56:30.598Z,88.50
2019-04-23T18:59:06.842Z,88.50
2019-04-23T19:01:36.619Z,88.70
2019-04-23T19:06:37.824Z,89.30
2019-04-23T19:09:23.771Z,89.00
2019-04-23T19:12:05.143Z,88.90
2019-04-23T19:14:53.966Z,88.80
2019-04-23T19:29:46.321Z,89.80
2019-04-23T19:32:24.534Z,90.30
2019-04-23T19:34:52.976Z,90.50
2019-04-23T19:37:23.146Z,90.50
2019-04-23T19:39:44.926Z,91.20
2019-04-23T19:42:14.143Z,91.80
2019-04-23T19:44:48.196Z,92.00
2019-04-23T19:47:25.650Z,92.10
2019-04-23T19:50:03.723Z,92.10
2019-04-23T19:52:34.146Z,92.60
2019-04-23T19:54:58.590Z,92.90
2019-04-23T19:57:33.803Z,93.20
2019-04-23T19:59:55.611Z,93.60
2019-04-23T20:05:06.863Z,93.90
2019-04-23T20:07:48.310Z,94.00
2019-04-23T20:09:55.166Z,94.40
2019-04-23T20:14:59.967Z,94.90
2019-04-23T20:20:09.063Z,95.10
2019-04-23T20:22:48.648Z,95.40
2019-04-23T20:27:52.481Z,95.30
2019-04-23T20:30:55.001Z,95.50
2019-04-23T20:35:36.586Z,95.10
2019-04-23T20:38:27.614Z,95.00
2019-04-23T20:43:09.250Z,95.00
2019-04-23T20:45:46.514Z,95.00
2019-04-23T20:48:12.682Z,94.90
2019-04-23T20:50:48.297Z,94.90
2019-04-23T20:53:13.444Z,94.90
2019-04-23T20:58:21.237Z,95.00
2019-04-23T21:01:00.405Z,95.00
2019-04-23T21:03:39.077Z,95.10
2019-04-23T21:06:04.394Z,95.60
2019-04-23T21:10:55.474Z,95.30
2019-04-23T21:13:47.526Z,95.50
2019-04-23T21:16:08.945Z,95.60
2019-04-23T21:18:42.524Z,95.60
2019-04-23T21:21:13.583Z,95.60
2019-04-23T21:23:44.019Z,95.60
2019-04-23T21:26:01.936Z,95.50
2019-04-23T21:28:52.573Z,95.70
2019-04-23T21:31:25.353Z,95.70
2019-04-23T21:39:20.310Z,95.70
2019-04-23T21:44:13.417Z,95.80
2019-04-23T21:46:50.989Z,95.90
2019-04-23T21:49:29.600Z,96.10
2019-04-23T21:51:49.322Z,96.20
2019-04-23T21:54:21.645Z,96.30
2019-04-23T21:59:23.132Z,96.40
2019-04-23T22:01:58.810Z,96.40
2019-04-23T22:04:36.195Z,96.50
2019-04-23T22:07:19.510Z,96.70
2019-04-23T22:09:34.635Z,96.90
2019-04-23T22:14:40.145Z,97.20
2019-04-23T22:17:10.274Z,97.20
2019-04-23T22:19:38.690Z,97.40
2019-04-23T22:22:13.281Z,97.60
2019-04-23T22:27:13.270Z,98.00
2019-04-23T22:29:44.630Z,98.30
2019-04-23T22:32:20.154Z,98.30
2019-04-23T22:34:55.641Z,98.30
2019-04-23T22:39:52.801Z,98.50
2019-04-23T22:42:41.196Z,98.70
2019-04-23T22:45:05.582Z,98.60
2019-04-23T22:47:33.820Z,98.50
2019-04-23T22:52:33.733Z,98.80
2019-04-23T22:57:59.902Z,99.00
2019-04-23T23:00:14.018Z,99.00
2019-04-23T23:03:00.878Z,99.10
2019-04-23T23:05:29.028Z,99.20
2019-04-23T23:08:03.030Z,99.30
2019-04-23T23:10:27.903Z,99.40
2019-04-23T23:13:03.823Z,99.30
2019-04-23T23:18:07.463Z,99.30
2019-04-23T23:20:29.280Z,99.40
2019-04-23T23:25:31.574Z,99.00
2019-04-23T23:28:12.168Z,99.10
2019-04-23T23:38:24.024Z,99.00
2019-04-23T23:41:03.772Z,99.10
2019-04-23T23:43:24.175Z,98.90
2019-04-23T23:46:06.961Z,99.00
2019-04-23T23:48:28.047Z,99.20
2019-04-23T23:51:29.467Z,99.20
2019-04-23T23:53:42.854Z,99.30
2019-04-23T23:56:15.377Z,99.20
2019-04-23T23:58:52.923Z,99.20
